createdAt,value
2018-07-21T00:01:41.091Z,18.40
2018-07-21T00:04:08.258Z,18.40
2018-07-21T00:06:35.462Z,18.40
2018-07-21T00:09:03.923Z,18.40
2018-07-21T00:11:31.031Z,18.30
2018-07-21T00:13:58.146Z,18.20
2018-07-21T00:16:25.254Z,18.20
2018-07-21T00:18:52.358Z,18.20
2018-07-21T00:21:19.486Z,18.20
2018-07-21T00:23:46.594Z,18.10
2018-07-21T00:26:13.702Z,18.00
2018-07-21T00:28:40.798Z,17.90
2018-07-21T00:31:08.026Z,17.90
2018-07-21T00:33:35.134Z,18.00
2018-07-21T00:36:02.255Z,18.00
2018-07-21T00:38:29.367Z,17.90
2018-07-21T00:40:56.494Z,17.90
2018-07-21T00:43:23.618Z,17.80
2018-07-21T00:48:17.889Z,17.70
2018-07-21T00:50:45.000Z,17.70
2018-07-21T00:53:12.121Z,17.70
2018-07-21T00:55:39.229Z,17.60
2018-07-21T00:58:06.357Z,17.60
2018-07-21T01:00:33.538Z,17.60
2018-07-21T01:03:00.626Z,17.60
2018-07-21T01:05:27.746Z,17.50
2018-07-21T01:07:54.846Z,17.50
2018-07-21T01:10:21.985Z,17.60
2018-07-21T01:12:49.178Z,17.70
2018-07-21T01:15:16.337Z,17.80
2018-07-21T01:17:43.503Z,17.80
2018-07-21T01:20:10.699Z,17.80
2018-07-21T01:22:37.846Z,17.70
2018-07-21T01:25:05.749Z,17.80
2018-07-21T01:27:32.883Z,17.80
2018-07-21T01:30:00.032Z,17.70
2018-07-21T01:32:27.198Z,17.80
2018-07-21T01:34:54.369Z,17.80
2018-07-21T01:37:21.510Z,17.70
2018-07-21T01:39:48.666Z,17.70
2018-07-21T01:42:15.805Z,17.60
2018-07-21T01:44:42.952Z,17.50
2018-07-21T01:47:10.161Z,17.50
2018-07-21T01:49:37.317Z,17.40
2018-07-21T01:52:04.505Z,17.30
2018-07-21T01:54:31.645Z,17.30
2018-07-21T01:56:58.795Z,17.30
2018-07-21T01:59:25.929Z,17.30
2018-07-21T02:01:53.063Z,17.30
2018-07-21T02:04:20.179Z,17.30
2018-07-21T02:06:47.305Z,17.40
2018-07-21T02:09:14.434Z,17.40
2018-07-21T02:11:41.566Z,17.40
2018-07-21T02:14:08.744Z,17.40
2018-07-21T02:16:35.930Z,17.50
2018-07-21T02:19:03.392Z,17.50
2018-07-21T02:23:57.649Z,17.50
2018-07-21T02:26:24.783Z,17.50
2018-07-21T02:28:51.915Z,17.50
2018-07-21T02:31:19.173Z,17.50
2018-07-21T02:33:46.290Z,17.50
2018-07-21T02:36:13.514Z,17.50
2018-07-21T02:38:40.661Z,17.50
2018-07-21T02:41:07.794Z,17.50
2018-07-21T02:43:34.926Z,17.50
2018-07-21T02:46:02.059Z,17.50
2018-07-21T02:48:29.193Z,17.50
2018-07-21T02:50:56.326Z,17.50
2018-07-21T02:53:23.459Z,17.50
2018-07-21T02:55:50.573Z,17.50
2018-07-21T02:58:17.693Z,17.50
2018-07-21T03:00:44.822Z,17.60
2018-07-21T03:03:11.967Z,17.50
2018-07-21T03:05:39.083Z,17.60
2018-07-21T03:08:06.325Z,17.60
2018-07-21T03:10:33.465Z,17.60
2018-07-21T03:13:00.593Z,17.60
2018-07-21T03:15:27.723Z,17.70
2018-07-21T03:17:54.833Z,17.70
2018-07-21T03:20:21.987Z,17.70
2018-07-21T03:22:49.127Z,17.70
2018-07-21T03:25:16.238Z,17.70
2018-07-21T03:27:43.346Z,17.60
2018-07-21T03:30:10.477Z,17.60
2018-07-21T03:32:37.594Z,17.50
2018-07-21T03:35:04.759Z,17.50
2018-07-21T03:37:31.890Z,17.50
2018-07-21T03:42:26.273Z,17.50
2018-07-21T03:44:53.381Z,17.50
2018-07-21T03:47:20.497Z,17.50
2018-07-21T03:49:47.605Z,17.50
2018-07-21T03:52:14.995Z,17.60
2018-07-21T03:54:42.133Z,17.60
2018-07-21T03:57:09.271Z,17.60
2018-07-21T03:59:36.402Z,17.60
2018-07-21T04:02:03.554Z,17.60
2018-07-21T04:04:30.681Z,17.60
2018-07-21T04:06:57.793Z,17.50
2018-07-21T04:09:24.902Z,17.50
2018-07-21T04:11:52.025Z,17.50
2018-07-21T04:14:19.179Z,17.50
2018-07-21T04:16:46.302Z,17.50
2018-07-21T04:19:13.442Z,17.50
2018-07-21T04:21:40.649Z,17.50
2018-07-21T04:24:07.798Z,17.50
2018-07-21T04:26:34.904Z,17.50
2018-07-21T04:29:02.062Z,17.50
2018-07-21T04:31:29.177Z,17.50
2018-07-21T04:33:56.357Z,17.40
2018-07-21T04:36:23.645Z,17.40
2018-07-21T04:38:50.756Z,17.40
2018-07-21T04:41:17.907Z,17.40
2018-07-21T04:43:45.059Z,17.40
2018-07-21T04:46:12.157Z,17.30
2018-07-21T04:48:39.270Z,17.30
2018-07-21T04:51:06.921Z,17.40
2018-07-21T04:53:34.055Z,17.30
2018-07-21T04:56:01.303Z,17.30
2018-07-21T04:58:28.458Z,17.30
2018-07-21T05:00:55.690Z,17.40
2018-07-21T05:03:22.765Z,17.40
2018-07-21T05:05:49.951Z,17.40
2018-07-21T05:08:17.119Z,17.40
2018-07-21T05:10:44.335Z,17.40
2018-07-21T05:13:11.482Z,17.30
2018-07-21T05:15:38.676Z,17.30
2018-07-21T05:18:05.859Z,17.20
2018-07-21T05:20:33.010Z,17.20
2018-07-21T05:23:00.154Z,17.20
2018-07-21T05:25:27.317Z,17.10
2018-07-21T05:27:54.458Z,17.20
2018-07-21T05:30:21.626Z,17.10
2018-07-21T05:32:48.767Z,17.20
2018-07-21T05:35:15.906Z,17.10
2018-07-21T05:37:43.109Z,17.20
2018-07-21T05:40:10.449Z,17.10
2018-07-21T05:42:37.613Z,17.10
2018-07-21T05:45:04.931Z,17.00
2018-07-21T05:47:32.069Z,17.00
2018-07-21T05:49:59.235Z,16.90
2018-07-21T05:52:26.381Z,16.90
2018-07-21T05:54:53.536Z,16.90
2018-07-21T05:57:20.689Z,16.80
2018-07-21T05:59:47.941Z,16.80
2018-07-21T06:02:15.087Z,16.80
2018-07-21T06:04:42.309Z,16.80
2018-07-21T06:07:09.471Z,16.80
2018-07-21T06:09:36.626Z,16.90
2018-07-21T06:12:03.828Z,16.90
2018-07-21T06:14:30.979Z,16.80
2018-07-21T06:16:58.135Z,16.80
2018-07-21T06:19:25.282Z,16.70
2018-07-21T06:21:52.422Z,16.60
2018-07-21T06:24:19.595Z,16.60
2018-07-21T06:26:46.737Z,16.50
2018-07-21T06:29:13.886Z,16.50
2018-07-21T06:31:41.055Z,16.50
2018-07-21T06:34:08.198Z,16.50
2018-07-21T06:36:35.361Z,16.50
2018-07-21T06:39:02.697Z,16.60
2018-07-21T06:41:29.859Z,16.60
2018-07-21T06:43:57.045Z,16.60
2018-07-21T06:46:24.135Z,16.70
2018-07-21T06:48:51.282Z,16.60
2018-07-21T06:51:18.449Z,16.70
2018-07-21T06:53:45.645Z,16.70
2018-07-21T06:56:12.785Z,16.80
2018-07-21T06:58:39.914Z,16.80
2018-07-21T07:01:07.082Z,16.90
2018-07-21T07:03:34.202Z,16.80
2018-07-21T07:06:01.453Z,16.90
2018-07-21T07:08:28.615Z,17.10
2018-07-21T07:10:57.060Z,17.10
2018-07-21T07:13:24.217Z,17.20
2018-07-21T07:15:51.425Z,17.30
2018-07-21T07:18:18.551Z,17.40
2018-07-21T07:20:45.685Z,17.40
2018-07-21T07:23:12.870Z,17.50
2018-07-21T07:25:40.022Z,17.50
2018-07-21T07:28:07.650Z,17.70
2018-07-21T07:30:34.768Z,17.70
2018-07-21T07:33:01.951Z,17.70
2018-07-21T07:35:29.070Z,17.70
2018-07-21T07:37:56.195Z,17.70
2018-07-21T07:40:23.913Z,17.70
2018-07-21T07:42:51.041Z,17.70
2018-07-21T07:45:18.274Z,17.80
2018-07-21T07:47:45.394Z,17.90
2018-07-21T07:50:12.528Z,17.90
2018-07-21T07:52:39.715Z,18.00
2018-07-21T07:55:07.043Z,18.10
2018-07-21T07:57:34.379Z,18.10
2018-07-21T08:00:01.611Z,18.20
2018-07-21T08:02:28.838Z,18.30
2018-07-21T08:04:56.011Z,18.30
2018-07-21T08:07:23.299Z,18.40
2018-07-21T08:09:50.583Z,18.30
2018-07-21T08:12:17.726Z,18.40
2018-07-21T08:14:44.909Z,18.40
2018-07-21T08:17:12.198Z,18.50
2018-07-21T08:19:39.369Z,18.60
2018-07-21T08:22:06.969Z,18.70
2018-07-21T08:24:34.172Z,18.80
2018-07-21T08:29:28.493Z,19.00
2018-07-21T08:31:55.641Z,18.90
2018-07-21T08:34:22.785Z,18.90
2018-07-21T08:36:49.954Z,18.90
2018-07-21T08:39:17.197Z,18.80
2018-07-21T08:41:44.342Z,18.80
2018-07-21T08:44:11.514Z,18.80
2018-07-21T08:46:38.710Z,18.80
2018-07-21T08:49:05.884Z,18.80
2018-07-21T08:51:33.046Z,18.90
2018-07-21T08:54:00.216Z,18.80
2018-07-21T08:56:27.428Z,18.90
2018-07-21T08:58:54.587Z,19.00
2018-07-21T09:01:21.748Z,19.00
2018-07-21T09:03:48.953Z,18.90
2018-07-21T09:06:16.109Z,19.00
2018-07-21T09:08:43.331Z,19.10
2018-07-21T09:11:10.502Z,19.10
2018-07-21T09:13:37.670Z,18.80
2018-07-21T09:16:04.838Z,18.50
2018-07-21T09:18:32.014Z,18.50
2018-07-21T09:20:59.170Z,18.50
2018-07-21T09:23:26.301Z,18.50
2018-07-21T09:25:53.735Z,18.60
2018-07-21T09:28:20.879Z,18.60
2018-07-21T09:30:48.249Z,18.70
2018-07-21T09:33:15.454Z,18.90
2018-07-21T09:35:42.589Z,19.10
2018-07-21T09:38:09.725Z,19.00
2018-07-21T09:40:36.870Z,19.00
2018-07-21T09:45:31.206Z,19.30
2018-07-21T09:47:58.342Z,19.20
2018-07-21T09:50:25.486Z,19.10
2018-07-21T09:52:52.627Z,18.90
2018-07-21T09:55:19.790Z,18.70
2018-07-21T09:57:46.946Z,18.60
2018-07-21T10:00:19.797Z,18.50
2018-07-21T10:02:46.919Z,18.40
2018-07-21T10:05:14.075Z,18.10
2018-07-21T10:07:41.189Z,18.00
2018-07-21T10:10:08.313Z,17.90
2018-07-21T10:12:35.474Z,17.80
2018-07-21T10:15:02.671Z,17.70
2018-07-21T10:17:29.830Z,17.60
2018-07-21T10:19:56.961Z,17.50
2018-07-21T10:22:24.073Z,17.30
2018-07-21T10:24:56.889Z,17.20
2018-07-21T10:27:28.634Z,17.20
2018-07-21T10:29:55.759Z,17.10
2018-07-21T10:32:22.902Z,17.00
2018-07-21T10:34:50.018Z,17.00
2018-07-21T10:37:17.137Z,17.00
2018-07-21T10:39:44.267Z,16.90
2018-07-21T10:42:11.399Z,16.80
2018-07-21T10:44:38.604Z,16.80
2018-07-21T10:49:32.882Z,16.70
2018-07-21T10:52:00.187Z,16.80
2018-07-21T10:56:54.503Z,16.70
2018-07-21T10:59:21.654Z,16.70
2018-07-21T11:01:48.935Z,16.60
2018-07-21T11:04:16.079Z,16.60
2018-07-21T11:06:43.217Z,16.60
2018-07-21T11:09:11.114Z,16.60
2018-07-21T11:11:38.762Z,16.60
2018-07-21T11:14:05.950Z,16.60
2018-07-21T11:16:33.142Z,16.70
2018-07-21T11:19:00.295Z,16.70
2018-07-21T11:21:27.558Z,16.80
2018-07-21T11:23:54.721Z,16.80
2018-07-21T11:26:21.866Z,16.80
2018-07-21T11:28:49.062Z,16.80
2018-07-21T11:31:16.437Z,16.80
2018-07-21T11:33:43.604Z,16.90
2018-07-21T11:36:11.031Z,17.00
2018-07-21T11:38:37.983Z,17.10
2018-07-21T11:41:05.154Z,17.20
2018-07-21T11:43:32.327Z,17.20
2018-07-21T11:45:59.490Z,17.40
2018-07-21T11:48:26.711Z,17.40
2018-07-21T11:50:53.873Z,17.40
2018-07-21T11:53:21.023Z,17.50
2018-07-21T11:55:48.166Z,17.60
2018-07-21T11:58:15.322Z,17.50
2018-07-21T12:00:42.515Z,17.50
2018-07-21T12:03:09.742Z,17.60
2018-07-21T12:05:36.922Z,17.70
2018-07-21T12:08:04.071Z,17.80
2018-07-21T12:10:31.238Z,17.80
2018-07-21T12:12:58.461Z,17.70
2018-07-21T12:15:25.569Z,17.70
2018-07-21T12:17:52.723Z,17.70
2018-07-21T12:20:20.022Z,17.70
2018-07-21T12:22:47.122Z,17.70
2018-07-21T12:25:14.375Z,17.80
2018-07-21T12:27:41.591Z,18.00
2018-07-21T12:30:08.679Z,18.10
2018-07-21T12:32:35.836Z,18.20
2018-07-21T12:35:03.035Z,18.10
2018-07-21T12:37:30.210Z,18.00
2018-07-21T12:39:57.395Z,18.00
2018-07-21T12:42:24.521Z,18.20
2018-07-21T12:44:51.729Z,18.30
2018-07-21T12:47:18.974Z,18.40
2018-07-21T12:49:46.142Z,18.40
2018-07-21T12:52:13.331Z,18.50
2018-07-21T12:54:40.486Z,18.60
2018-07-21T12:57:07.707Z,18.70
2018-07-21T12:59:34.885Z,18.90
2018-07-21T13:02:02.035Z,19.10
2018-07-21T13:04:29.198Z,19.40
2018-07-21T13:06:56.400Z,19.60
2018-07-21T13:11:50.727Z,19.90
2018-07-21T13:14:17.904Z,19.90
2018-07-21T13:16:45.196Z,19.80
2018-07-21T13:19:12.398Z,19.90
2018-07-21T13:21:39.590Z,19.90
2018-07-21T13:24:06.785Z,19.80
2018-07-21T13:26:34.047Z,20.00
2018-07-21T13:29:01.256Z,20.00
2018-07-21T13:31:28.437Z,20.10
2018-07-21T13:33:55.591Z,20.40
2018-07-21T13:36:22.742Z,20.80
2018-07-21T13:38:50.019Z,21.10
2018-07-21T13:41:17.231Z,21.20
2018-07-21T13:43:44.434Z,21.30
2018-07-21T13:46:11.616Z,21.50
2018-07-21T13:48:38.761Z,21.30
2018-07-21T13:51:06.391Z,21.10
2018-07-21T13:53:33.566Z,20.60
2018-07-21T13:56:00.774Z,20.30
2018-07-21T13:58:27.933Z,20.30
2018-07-21T14:00:55.110Z,20.20
2018-07-21T14:03:22.280Z,20.30
2018-07-21T14:05:49.384Z,20.40
2018-07-21T14:08:16.498Z,20.60
2018-07-21T14:10:43.621Z,20.80
2018-07-21T14:13:10.743Z,20.70
2018-07-21T14:15:37.878Z,20.80
2018-07-21T14:18:05.326Z,20.70
2018-07-21T14:20:32.481Z,20.70
2018-07-21T14:22:59.617Z,20.80
2018-07-21T14:25:26.738Z,20.70
2018-07-21T14:27:53.850Z,20.60
2018-07-21T14:30:20.989Z,20.60
2018-07-21T14:32:48.102Z,20.60
2018-07-21T14:37:42.397Z,21.00
2018-07-21T14:47:31.244Z,20.30
2018-07-21T14:49:58.370Z,20.40
2018-07-21T14:52:25.498Z,20.60
2018-07-21T14:57:19.790Z,21.00
2018-07-21T14:59:46.925Z,21.20
2018-07-21T15:02:14.070Z,21.30
2018-07-21T15:04:41.211Z,21.40
2018-07-21T15:07:08.482Z,21.70
2018-07-21T15:09:35.694Z,21.60
2018-07-21T15:14:29.985Z,21.80
2018-07-21T15:16:57.139Z,21.70
2018-07-21T15:19:24.289Z,21.50
2018-07-21T15:21:51.439Z,21.60
2018-07-21T15:24:18.598Z,21.90
2018-07-21T15:26:45.786Z,22.20
2018-07-21T15:29:12.937Z,22.20
2018-07-21T15:31:40.097Z,22.50
2018-07-21T15:34:07.709Z,22.50
2018-07-21T15:36:34.898Z,22.10
2018-07-21T15:39:02.065Z,22.30
2018-07-21T15:41:29.227Z,22.50
2018-07-21T15:43:56.389Z,22.40
2018-07-21T15:46:23.525Z,21.90
2018-07-21T15:48:50.666Z,21.90
2018-07-21T15:51:17.814Z,21.70
2018-07-21T15:53:44.975Z,21.70
2018-07-21T15:56:12.154Z,21.50
2018-07-21T15:58:39.314Z,21.40
2018-07-21T16:01:06.662Z,21.50
2018-07-21T16:03:33.794Z,21.20
2018-07-21T16:06:00.950Z,21.10
2018-07-21T16:08:28.106Z,21.10
2018-07-21T16:10:55.313Z,21.00
2018-07-21T16:13:22.439Z,20.90
2018-07-21T16:15:49.581Z,20.90
2018-07-21T16:18:16.737Z,20.80
2018-07-21T16:20:43.878Z,20.80
2018-07-21T16:23:11.069Z,20.80
2018-07-21T16:25:38.201Z,20.90
2018-07-21T16:28:05.434Z,20.90
2018-07-21T16:30:32.595Z,21.00
2018-07-21T16:32:59.778Z,20.90
2018-07-21T16:35:26.971Z,21.00
2018-07-21T16:37:54.127Z,20.90
2018-07-21T16:40:21.271Z,20.70
2018-07-21T16:42:48.422Z,20.70
2018-07-21T16:45:15.579Z,20.50
2018-07-21T16:47:42.722Z,20.60
2018-07-21T16:50:09.894Z,20.40
2018-07-21T16:52:37.050Z,20.20
2018-07-21T16:55:04.244Z,20.20
2018-07-21T16:59:58.606Z,20.00
2018-07-21T17:02:25.757Z,19.90
2018-07-21T17:04:53.102Z,19.90
2018-07-21T17:07:20.271Z,19.80
2018-07-21T17:09:47.421Z,19.70
2018-07-21T17:12:14.580Z,19.60
2018-07-21T17:14:41.755Z,19.60
2018-07-21T17:17:08.909Z,19.60
2018-07-21T17:19:36.054Z,19.50
2018-07-21T17:22:03.205Z,19.50
2018-07-21T17:24:30.367Z,19.40
2018-07-21T17:26:57.514Z,19.30
2018-07-21T17:29:24.793Z,19.00
2018-07-21T17:31:51.869Z,18.90
2018-07-21T17:34:19.041Z,18.70
2018-07-21T17:36:46.178Z,18.50
2018-07-21T17:39:13.340Z,18.30
2018-07-21T17:41:40.771Z,18.10
2018-07-21T17:44:08.130Z,17.90
2018-07-21T17:46:35.322Z,17.60
2018-07-21T17:49:02.735Z,17.40
2018-07-21T17:51:29.907Z,17.20
2018-07-21T17:53:57.053Z,16.90
2018-07-21T17:56:24.185Z,16.70
2018-07-21T17:58:51.352Z,16.60
2018-07-21T18:01:19.257Z,16.40
2018-07-21T18:03:46.429Z,16.30
2018-07-21T18:06:13.539Z,16.20
2018-07-21T18:08:40.676Z,16.20
2018-07-21T18:11:07.802Z,16.00
2018-07-21T18:13:34.957Z,16.00
2018-07-21T18:16:02.105Z,15.90
2018-07-21T18:18:29.209Z,15.90
2018-07-21T18:20:56.392Z,15.80
2018-07-21T18:23:23.579Z,15.80
2018-07-21T18:25:50.711Z,15.80
2018-07-21T18:28:17.853Z,15.80
2018-07-21T18:30:44.974Z,15.80
2018-07-21T18:33:12.147Z,15.80
2018-07-21T18:35:39.343Z,15.90
2018-07-21T18:38:06.577Z,15.90
2018-07-21T18:40:33.888Z,15.80
2018-07-21T18:43:01.143Z,15.80
2018-07-21T18:45:28.331Z,15.90
2018-07-21T18:47:55.521Z,15.80
2018-07-21T18:50:22.705Z,15.80
2018-07-21T18:52:49.998Z,15.80
2018-07-21T18:55:17.182Z,15.80
2018-07-21T18:57:44.399Z,15.70
2018-07-21T19:02:38.777Z,15.70
2018-07-21T19:05:05.927Z,15.70
2018-07-21T19:07:33.071Z,15.70
2018-07-21T19:10:00.339Z,15.70
2018-07-21T19:12:33.246Z,15.70
2018-07-21T19:17:27.503Z,15.60
2018-07-21T19:20:00.462Z,15.60
2018-07-21T19:22:27.583Z,15.60
2018-07-21T19:24:54.727Z,15.60
2018-07-21T19:29:54.665Z,15.60
2018-07-21T19:32:27.443Z,15.60
2018-07-21T19:34:54.594Z,15.60
2018-07-21T19:37:27.557Z,15.60
2018-07-21T19:39:54.676Z,15.60
2018-07-21T19:42:21.797Z,15.60
2018-07-21T19:44:48.929Z,15.60
2018-07-21T19:47:16.081Z,15.60
2018-07-21T19:49:43.165Z,15.60
2018-07-21T19:52:10.298Z,15.60
2018-07-21T19:54:37.423Z,15.60
2018-07-21T19:57:04.706Z,15.60
2018-07-21T19:59:31.889Z,15.60
2018-07-21T20:01:59.030Z,15.60
2018-07-21T20:04:26.171Z,15.60
2018-07-21T20:06:53.338Z,15.60
2018-07-21T20:09:20.477Z,15.60
2018-07-21T20:11:47.618Z,15.60
2018-07-21T20:14:14.758Z,15.60
2018-07-21T20:16:41.918Z,15.60
2018-07-21T20:19:09.055Z,15.50
2018-07-21T20:21:36.233Z,15.50
2018-07-21T20:24:03.460Z,15.50
2018-07-21T20:26:30.561Z,15.50
2018-07-21T20:28:57.701Z,15.50
2018-07-21T20:31:24.958Z,15.50
2018-07-21T20:33:52.137Z,15.50
2018-07-21T20:36:19.327Z,15.50
2018-07-21T20:38:46.493Z,15.50
2018-07-21T20:41:13.649Z,15.50
2018-07-21T20:43:40.844Z,15.50
2018-07-21T20:46:07.962Z,15.50
2018-07-21T20:48:35.111Z,15.50
2018-07-21T20:51:02.250Z,15.50
2018-07-21T20:53:29.430Z,15.50
2018-07-21T20:55:56.866Z,15.50
2018-07-21T20:58:24.014Z,15.60
2018-07-21T21:00:51.216Z,15.50
2018-07-21T21:03:18.325Z,15.60
2018-07-21T21:05:45.441Z,15.60
2018-07-21T21:08:12.662Z,15.70
2018-07-21T21:10:39.845Z,15.70
2018-07-21T21:13:07.334Z,15.70
2018-07-21T21:15:34.509Z,15.70
2018-07-21T21:18:01.670Z,15.70
2018-07-21T21:20:28.791Z,15.80
2018-07-21T21:22:55.909Z,15.80
2018-07-21T21:25:23.022Z,15.70
2018-07-21T21:27:50.146Z,15.80
2018-07-21T21:30:17.286Z,15.80
2018-07-21T21:32:44.402Z,15.90
2018-07-21T21:35:11.530Z,15.80
2018-07-21T21:37:38.753Z,15.90
2018-07-21T21:40:05.941Z,15.90
2018-07-21T21:42:33.165Z,15.90
2018-07-21T21:45:00.246Z,15.90
2018-07-21T21:47:27.378Z,16.00
2018-07-21T21:49:54.563Z,16.00
2018-07-21T21:52:21.717Z,16.00
2018-07-21T21:54:48.851Z,16.00
2018-07-21T21:57:15.994Z,16.00
2018-07-21T21:59:43.159Z,16.10
2018-07-21T22:02:10.542Z,16.10
2018-07-21T22:04:37.757Z,16.10
2018-07-21T22:07:04.843Z,16.10
2018-07-21T22:09:31.973Z,16.10
2018-07-21T22:11:59.139Z,16.10
2018-07-21T22:14:26.271Z,16.10
2018-07-21T22:16:53.418Z,16.10
2018-07-21T22:19:20.574Z,16.10
2018-07-21T22:21:47.703Z,16.10
2018-07-21T22:24:14.867Z,16.20
2018-07-21T22:26:41.994Z,16.10
2018-07-21T22:29:09.129Z,16.10
2018-07-21T22:31:36.261Z,16.20
2018-07-21T22:34:03.434Z,16.20
2018-07-21T22:36:30.589Z,16.20
2018-07-21T22:38:57.735Z,16.20
2018-07-21T22:41:24.858Z,16.20
2018-07-21T22:43:51.977Z,16.20
2018-07-21T22:46:19.107Z,16.20
2018-07-21T22:48:46.238Z,16.30
2018-07-21T22:51:13.381Z,16.20
2018-07-21T22:53:40.522Z,16.20
2018-07-21T22:56:07.646Z,16.30
2018-07-21T22:58:34.792Z,16.30
2018-07-21T23:01:02.153Z,16.30
2018-07-21T23:03:29.296Z,16.30
2018-07-21T23:08:23.557Z,16.20
2018-07-21T23:10:50.691Z,16.30
2018-07-21T23:13:17.832Z,16.20
2018-07-21T23:15:44.969Z,16.30
2018-07-21T23:18:12.111Z,16.30
2018-07-21T23:20:39.250Z,16.30
2018-07-21T23:25:33.538Z,16.30
2018-07-21T23:28:00.661Z,16.30
2018-07-21T23:30:27.810Z,16.30
2018-07-21T23:32:54.925Z,16.30
2018-07-21T23:35:22.062Z,16.30
2018-07-21T23:37:49.173Z,16.30
2018-07-21T23:40:16.341Z,16.30
2018-07-21T23:42:43.488Z,16.20
2018-07-21T23:45:10.613Z,16.20
2018-07-21T23:47:37.757Z,16.20
2018-07-21T23:50:05.030Z,16.30
2018-07-21T23:52:32.253Z,16.30
2018-07-21T23:54:59.498Z,16.30
2018-07-21T23:57:26.713Z,16.30
2018-07-21T23:59:53.905Z,16.20
